Time;durP1;ratioP1;P1;durP2;ratioP2;P2;SDS_P1;SDS_P2;PMS_P1;PMS_P2;Temp;Humidity;BMP_temperature;BMP_pressure;BME280_temperature;BME280_humidity;BME280_pressure;Samples;Min_cycle;Max_cycle;Signal;HPM_P1;HPM_P2
2023/12/05 00:01:42;;;;;;;16.37;13.13;;;;;5.00;99096.00;;;;10085881;29;20227;-78
2023/12/05 00:06:43;;;;;;;13.80;11.60;;;;;5.00;99090.00;;;;10088198;29;20274;-80
2023/12/05 00:11:45;;;;;;;13.80;12.23;;;;;5.10;99075.00;;;;10079727;29;20224;-78
2023/12/05 00:16:46;;;;;;;18.23;13.37;;;;;5.10;99084.00;;;;10071922;29;20310;-78
2023/12/05 00:21:47;;;;;;;17.37;13.57;;;;;5.10;99080.00;;;;10079328;29;20227;-81
2023/12/05 00:26:49;;;;;;;14.13;11.43;;;;;5.10;99077.00;;;;10087092;29;20227;-79
2023/12/05 00:31:50;;;;;;;15.47;12.20;;;;;5.10;99071.00;;;;10067237;29;20242;-79
2023/12/05 00:36:51;;;;;;;16.90;12.33;;;;;5.10;99074.00;;;;10086231;29;20766;-80
2023/12/05 00:41:52;;;;;;;14.33;10.77;;;;;5.10;99087.00;;;;10070501;29;20971;-81
2023/12/05 00:46:53;;;;;;;16.80;12.67;;;;;5.10;99083.00;;;;10056238;29;20239;-80
2023/12/05 00:51:55;;;;;;;14.70;12.63;;;;;5.00;99090.00;;;;10067984;29;20231;-79
2023/12/05 00:56:58;;;;;;;16.27;12.73;;;;;5.10;99085.00;;;;10053359;29;20220;-79
2023/12/05 01:01:59;;;;;;;16.57;12.17;;;;;5.10;99085.00;;;;10077193;29;20240;-80
2023/12/05 01:07:01;;;;;;;16.63;12.33;;;;;5.10;99094.00;;;;10053238;29;20255;-79
2023/12/05 01:12:02;;;;;;;15.00;12.17;;;;;5.10;99088.00;;;;10073120;29;20230;-80
2023/12/05 01:17:03;;;;;;;16.70;13.53;;;;;5.20;99089.00;;;;10071492;29;20790;-80
2023/12/05 01:22:05;;;;;;;16.80;13.37;;;;;5.20;99086.00;;;;10093298;29;20247;-80
2023/12/05 01:27:07;;;;;;;16.80;13.10;;;;;5.20;99099.00;;;;10072415;29;20246;-82
2023/12/05 01:32:08;;;;;;;17.33;13.13;;;;;5.20;99096.00;;;;10076853;29;20239;-82
2023/12/05 01:37:09;;;;;;;16.43;13.17;;;;;5.20;99094.00;;;;10084810;29;20224;-80
2023/12/05 01:42:10;;;;;;;17.03;13.07;;;;;5.20;99095.00;;;;10074328;29;20263;-80
2023/12/05 01:47:16;;;;;;;16.57;12.73;;;;;5.30;99095.00;;;;10088127;29;20311;-80
2023/12/05 01:52:17;;;;;;;18.67;12.17;;;;;5.30;99095.00;;;;10072871;29;20737;-79
2023/12/05 01:57:19;;;;;;;16.30;13.03;;;;;5.30;99110.00;;;;10070160;29;20354;-78
2023/12/05 02:02:21;;;;;;;19.07;13.97;;;;;5.30;99108.00;;;;10062639;29;20291;-78
2023/12/05 02:07:23;;;;;;;20.27;15.30;;;;;5.30;99118.00;;;;10076886;29;20279;-78
2023/12/05 02:12:24;;;;;;;19.50;14.93;;;;;5.30;99112.00;;;;10086737;29;20321;-79
2023/12/05 02:17:48;;;;;;;20.33;14.03;;;;;5.40;99113.00;;;;10071192;29;20315;-78
2023/12/05 02:23:01;;;;;;;17.37;13.70;;;;;5.40;99111.00;;;;10079821;29;20227;-79
2023/12/05 02:28:03;;;;;;;20.43;14.57;;;;;5.40;99116.00;;;;10107665;29;20223;-79
2023/12/05 02:33:05;;;;;;;19.37;13.83;;;;;5.40;99108.00;;;;10098951;29;20228;-79
2023/12/05 02:38:15;;;;;;;18.50;13.97;;;;;5.40;99111.00;;;;10068215;29;20263;-79
2023/12/05 02:43:24;;;;;;;21.03;13.23;;;;;5.40;99121.00;;;;10079306;29;20319;-78
2023/12/05 02:48:25;;;;;;;20.17;15.13;;;;;5.40;99125.00;;;;10092312;29;20243;-78
2023/12/05 02:53:27;;;;;;;22.03;13.87;;;;;5.40;99130.00;;;;10078364;29;20231;-78
2023/12/05 02:58:28;;;;;;;21.47;14.53;;;;;5.40;99129.00;;;;10092072;29;20242;-78
2023/12/05 03:03:30;;;;;;;19.17;14.50;;;;;5.40;99137.00;;;;10087096;29;20232;-77
2023/12/05 03:08:31;;;;;;;22.30;15.67;;;;;5.40;99136.00;;;;10089207;29;20279;-79
2023/12/05 03:13:33;;;;;;;19.57;15.47;;;;;5.40;99137.00;;;;10070131;29;20243;-78
2023/12/05 03:18:34;;;;;;;21.40;15.83;;;;;5.40;99135.00;;;;10058231;29;20291;-79
2023/12/05 03:23:35;;;;;;;23.37;15.87;;;;;5.40;99136.00;;;;10059447;29;20251;-79
2023/12/05 03:28:37;;;;;;;22.63;16.57;;;;;5.40;99133.00;;;;10087828;29;20297;-79
2023/12/05 03:33:38;;;;;;;22.70;16.60;;;;;5.40;99131.00;;;;10070701;29;20247;-78
2023/12/05 03:38:40;;;;;;;23.87;17.30;;;;;5.40;99134.00;;;;10103092;29;21021;-79
2023/12/05 03:43:41;;;;;;;19.63;15.77;;;;;5.40;99142.00;;;;10088313;29;20269;-79
2023/12/05 03:48:42;;;;;;;23.13;16.83;;;;;5.40;99142.00;;;;10070205;29;20793;-79
2023/12/05 03:53:44;;;;;;;24.23;16.57;;;;;5.40;99136.00;;;;10105644;29;20327;-79
2023/12/05 03:58:45;;;;;;;25.57;17.00;;;;;5.40;99147.00;;;;10086319;29;20631;-79
2023/12/05 04:03:46;;;;;;;25.30;17.63;;;;;5.40;99152.00;;;;10089774;29;20627;-79
2023/12/05 04:08:48;;;;;;;22.60;17.27;;;;;5.40;99150.00;;;;10074915;29;20251;-79
2023/12/05 04:13:49;;;;;;;22.77;17.47;;;;;5.40;99156.00;;;;10094535;29;20280;-79
2023/12/05 04:18:51;;;;;;;22.47;17.30;;;;;5.40;99161.00;;;;10079130;29;20378;-79
2023/12/05 04:23:52;;;;;;;25.23;17.13;;;;;5.40;99165.00;;;;10073130;29;20235;-80
2023/12/05 04:28:54;;;;;;;26.70;18.57;;;;;5.50;99176.00;;;;10079298;29;20231;-81
2023/12/05 04:33:55;;;;;;;26.23;19.03;;;;;5.50;99180.00;;;;10064606;29;20237;-78
2023/12/05 04:38:56;;;;;;;32.73;22.00;;;;;5.50;99179.00;;;;10082950;29;20251;-78
2023/12/05 04:43:58;;;;;;;30.97;20.97;;;;;5.40;99183.00;;;;10088428;29;20313;-81
2023/12/05 04:48:59;;;;;;;34.07;20.87;;;;;5.40;99186.00;;;;10086831;29;20278;-79
2023/12/05 04:54:01;;;;;;;37.10;22.57;;;;;5.40;99191.00;;;;10090672;29;20238;-79
2023/12/05 04:59:02;;;;;;;34.67;21.23;;;;;5.40;99205.00;;;;10058761;29;20235;-79
2023/12/05 05:04:03;;;;;;;35.50;21.87;;;;;5.40;99203.00;;;;10085987;29;20295;-78
2023/12/05 05:09:07;;;;;;;38.50;23.43;;;;;5.30;99202.00;;;;10107369;29;20227;-80
2023/12/05 05:14:08;;;;;;;40.20;24.00;;;;;5.30;99200.00;;;;10064561;29;20334;-78
2023/12/05 05:19:09;;;;;;;38.60;24.80;;;;;5.30;99215.00;;;;10069646;29;20235;-78
2023/12/05 05:24:11;;;;;;;44.87;23.93;;;;;5.20;99217.00;;;;10067841;29;20235;-79
2023/12/05 05:29:12;;;;;;;47.87;26.40;;;;;5.20;99226.00;;;;10069021;29;20346;-79
2023/12/05 05:34:13;;;;;;;45.37;25.13;;;;;5.20;99224.00;;;;10062666;29;20306;-80
2023/12/05 05:39:14;;;;;;;48.77;26.50;;;;;5.10;99232.00;;;;10083161;29;20330;-79
2023/12/05 05:44:16;;;;;;;49.37;27.50;;;;;5.10;99240.00;;;;10071454;29;20232;-78
2023/12/05 05:49:17;;;;;;;51.30;27.70;;;;;5.00;99246.00;;;;10061518;29;20232;-78
2023/12/05 05:54:18;;;;;;;47.70;27.77;;;;;4.90;99251.00;;;;10089021;29;20307;-79
2023/12/05 05:59:20;;;;;;;50.87;28.17;;;;;4.80;99256.00;;;;10068969;29;20231;-78
2023/12/05 06:04:21;;;;;;;59.43;31.30;;;;;4.80;99262.00;;;;10076650;29;20251;-78
2023/12/05 06:09:22;;;;;;;56.67;30.43;;;;;4.80;99273.00;;;;10071708;29;20274;-78
2023/12/05 06:14:23;;;;;;;61.60;32.63;;;;;4.80;99277.00;;;;10068712;29;20587;-78
2023/12/05 06:19:24;;;;;;;57.93;29.97;;;;;4.80;99283.00;;;;10088080;29;20236;-80
2023/12/05 06:24:26;;;;;;;46.10;26.47;;;;;4.70;99300.00;;;;10081795;29;20286;-79
2023/12/05 06:29:28;;;;;;;46.30;25.77;;;;;4.70;99310.00;;;;10071264;29;20264;-78
2023/12/05 06:34:29;;;;;;;41.93;24.93;;;;;4.60;99317.00;;;;10087802;29;20227;-78
2023/12/05 06:39:30;;;;;;;41.77;23.40;;;;;4.50;99326.00;;;;10095693;29;20265;-79
2023/12/05 06:44:31;;;;;;;38.67;23.20;;;;;4.50;99334.00;;;;10074326;29;20247;-78
2023/12/05 06:49:32;;;;;;;38.43;21.03;;;;;4.50;99338.00;;;;10098993;29;20232;-77
2023/12/05 06:54:34;;;;;;;36.97;21.87;;;;;4.50;99344.00;;;;10086970;29;20235;-77
2023/12/05 06:59:35;;;;;;;33.87;19.73;;;;;4.50;99349.00;;;;10072881;29;20242;-79
2023/12/05 07:04:36;;;;;;;36.80;21.00;;;;;4.50;99354.00;;;;10050890;29;20288;-78
2023/12/05 07:09:38;;;;;;;36.57;20.47;;;;;4.50;99352.00;;;;10070100;29;20231;-78
2023/12/05 07:14:39;;;;;;;36.30;19.50;;;;;4.40;99366.00;;;;10055139;29;20234;-78
2023/12/05 07:19:40;;;;;;;47.80;23.17;;;;;4.30;99382.00;;;;10093028;29;20238;-78
2023/12/05 07:24:41;;;;;;;46.57;23.07;;;;;4.30;99389.00;;;;10068303;29;20231;-79
2023/12/05 07:29:44;;;;;;;46.27;22.73;;;;;4.30;99408.00;;;;10086071;29;20639;-78
2023/12/05 07:34:45;;;;;;;46.70;24.23;;;;;4.20;99415.00;;;;10044601;29;20259;-79
2023/12/05 07:39:47;;;;;;;49.07;24.83;;;;;4.20;99429.00;;;;10084320;29;20227;-79
2023/12/05 07:44:48;;;;;;;50.83;26.13;;;;;4.20;99438.00;;;;10099138;29;20235;-79
2023/12/05 07:49:50;;;;;;;53.50;26.17;;;;;4.10;99441.00;;;;10054204;29;20234;-79
2023/12/05 07:54:51;;;;;;;62.13;28.23;;;;;4.10;99458.00;;;;10069325;29;20251;-79
2023/12/05 07:59:52;;;;;;;62.07;29.37;;;;;4.10;99465.00;;;;10078612;29;20247;-78
2023/12/05 08:04:54;;;;;;;82.47;34.77;;;;;4.10;99470.00;;;;10056411;29;20254;-79
2023/12/05 08:09:55;;;;;;;81.20;36.57;;;;;4.10;99483.00;;;;10063929;29;20239;-80
2023/12/05 08:14:57;;;;;;;89.30;37.37;;;;;4.10;99492.00;;;;10064132;29;20226;-81
2023/12/05 08:19:58;;;;;;;80.13;37.27;;;;;4.20;99502.00;;;;10083370;29;20246;-79
2023/12/05 08:24:59;;;;;;;77.87;35.67;;;;;4.20;99511.00;;;;10086353;29;20841;-79
2023/12/05 08:30:02;;;;;;;72.73;35.53;;;;;4.20;99513.00;;;;10067604;29;20280;-79
2023/12/05 08:35:07;;;;;;;67.37;33.07;;;;;4.20;99514.00;;;;10058140;29;20251;-78
2023/12/05 08:40:09;;;;;;;67.30;31.00;;;;;4.20;99517.00;;;;10065203;29;20239;-77
2023/12/05 08:45:10;;;;;;;57.00;29.23;;;;;4.10;99522.00;;;;10084522;29;20263;-79
2023/12/05 08:50:12;;;;;;;62.80;30.77;;;;;4.10;99534.00;;;;10054969;29;20370;-79
2023/12/05 08:55:14;;;;;;;58.83;31.90;;;;;4.20;99537.00;;;;10092043;29;20241;-79
2023/12/05 09:00:15;;;;;;;63.33;31.97;;;;;4.20;99537.00;;;;10073625;29;20264;-78
2023/12/05 09:05:16;;;;;;;66.77;31.87;;;;;4.20;99547.00;;;;10077686;29;20710;-79
2023/12/05 09:10:18;;;;;;;71.37;32.60;;;;;4.20;99554.00;;;;10067291;29;20231;-79
2023/12/05 09:15:20;;;;;;;66.27;31.33;;;;;4.20;99547.00;;;;10083782;29;20310;-79
2023/12/05 09:20:23;;;;;;;61.43;28.83;;;;;4.20;99527.00;;;;10086038;29;20678;-82
2023/12/05 09:25:24;;;;;;;71.10;32.50;;;;;4.20;99557.00;;;;10097927;29;20239;-78
2023/12/05 09:30:26;;;;;;;83.87;36.57;;;;;4.20;99597.00;;;;10084039;29;20254;-79
2023/12/05 09:35:27;;;;;;;80.37;36.67;;;;;4.20;99609.00;;;;10062705;29;20235;-80
2023/12/05 09:40:31;;;;;;;81.73;35.30;;;;;4.40;99622.00;;;;10083288;29;20235;-81
2023/12/05 09:45:39;;;;;;;70.30;32.20;;;;;4.60;99624.00;;;;10089624;29;20318;-78
2023/12/05 09:50:40;;;;;;;72.97;33.10;;;;;4.70;99627.00;;;;10087526;29;20228;-78
2023/12/05 09:55:42;;;;;;;72.73;33.47;;;;;4.70;99634.00;;;;10074675;29;20230;-79
2023/12/05 10:00:44;;;;;;;64.70;31.23;;;;;4.80;99634.00;;;;10089553;29;21073;-79
2023/12/05 10:05:47;;;;;;;62.17;28.70;;;;;4.60;99635.00;;;;10059531;29;20227;-79
2023/12/05 10:10:50;;;;;;;57.27;28.20;;;;;4.60;99629.00;;;;10070453;29;20294;-81
2023/12/05 10:15:51;;;;;;;57.07;28.13;;;;;4.60;99639.00;;;;10097327;29;20236;-78
2023/12/05 10:20:52;;;;;;;56.77;26.60;;;;;4.80;99655.00;;;;10101970;29;20936;-78
2023/12/05 10:25:57;;;;;;;53.83;25.73;;;;;4.80;99668.00;;;;10057360;29;20678;-79
2023/12/05 10:30:58;;;;;;;50.93;22.80;;;;;4.80;99686.00;;;;10086747;29;20239;-78
2023/12/05 10:36:09;;;;;;;52.97;26.67;;;;;4.90;99698.00;;;;10090237;29;20964;-78
2023/12/05 10:41:11;;;;;;;53.73;25.43;;;;;4.90;99704.00;;;;10085481;29;20275;-78
2023/12/05 10:46:12;;;;;;;49.50;23.10;;;;;4.90;99702.00;;;;10069186;29;20908;-78
2023/12/05 10:51:14;;;;;;;45.43;22.03;;;;;4.90;99707.00;;;;10082655;29;20338;-78
2023/12/05 10:56:19;;;;;;;43.27;20.67;;;;;5.00;99714.00;;;;10083597;29;20733;-78
2023/12/05 11:01:21;;;;;;;44.50;21.33;;;;;5.00;99720.00;;;;10067536;29;20957;-79
2023/12/05 11:06:23;;;;;;;42.33;21.07;;;;;4.90;99728.00;;;;10073577;29;20228;-79
2023/12/05 11:11:26;;;;;;;60.50;26.13;;;;;4.80;99721.00;;;;10075284;29;20302;-78
2023/12/05 11:16:33;;;;;;;77.13;30.10;;;;;4.60;99734.00;;;;10050094;29;20215;-78
2023/12/05 11:21:53;;;;;;;75.23;31.23;;;;;4.50;99745.00;;;;10080480;29;20291;-78
2023/12/05 11:27:04;;;;;;;75.87;30.87;;;;;4.40;99751.00;;;;10062143;29;20283;-78
2023/12/05 11:32:35;;;;;;;48.20;21.20;;;;;4.30;99763.00;;;;10068594;29;20315;-78
2023/12/05 11:38:04;;;;;;;80.40;31.90;;;;;4.30;99770.00;;;;10065194;29;20234;-78
2023/12/05 11:43:11;;;;;;;77.80;28.90;;;;;4.20;99783.00;;;;10067288;29;20885;-79
2023/12/05 11:48:13;;;;;;;86.83;33.97;;;;;4.10;99775.00;;;;10068270;29;20228;-78
2023/12/05 11:53:17;;;;;;;63.80;26.33;;;;;4.10;99788.00;;;;10081957;29;20302;-78
2023/12/05 11:58:36;;;;;;;77.60;29.20;;;;;4.10;99792.00;;;;10083833;29;20801;-78
2023/12/05 12:03:54;;;;;;;64.73;27.53;;;;;4.10;99792.00;;;;10080329;29;20232;-78
2023/12/05 12:08:56;;;;;;;56.37;24.77;;;;;4.00;99800.00;;;;10089460;29;20234;-77
2023/12/05 12:13:57;;;;;;;65.87;26.67;;;;;3.90;99796.00;;;;10080642;29;20220;-78
2023/12/05 12:19:02;;;;;;;75.53;29.00;;;;;3.90;99807.00;;;;10067072;29;20255;-78
2023/12/05 12:24:04;;;;;;;66.03;26.73;;;;;4.00;99823.00;;;;10084552;29;20637;-78
2023/12/05 12:29:11;;;;;;;77.03;30.77;;;;;4.00;99823.00;;;;10064511;29;20232;-78
2023/12/05 12:34:26;;;;;;;53.57;23.00;;;;;3.90;99834.00;;;;10064558;29;20307;-78
2023/12/05 12:39:29;;;;;;;59.63;24.10;;;;;3.80;99836.00;;;;10079945;29;20754;-79
2023/12/05 12:44:30;;;;;;;67.03;27.57;;;;;3.80;99844.00;;;;10078067;29;21073;-79
2023/12/05 12:49:32;;;;;;;74.13;29.33;;;;;3.90;99840.00;;;;10073960;29;20249;-80
2023/12/05 12:54:37;;;;;;;68.10;26.83;;;;;4.00;99855.00;;;;10048253;29;20247;-79
2023/12/05 12:59:40;;;;;;;64.27;26.13;;;;;4.00;99851.00;;;;10081966;29;20941;-80
2023/12/05 13:04:42;;;;;;;79.60;27.93;;;;;4.00;99859.00;;;;10072856;29;20307;-78
2023/12/05 13:09:43;;;;;;;66.17;26.27;;;;;3.90;99870.00;;;;10059843;29;20287;-83
2023/12/05 13:14:49;;;;;;;61.73;25.83;;;;;4.00;99860.00;;;;10068992;29;21032;-79
2023/12/05 13:20:03;;;;;;;58.70;24.70;;;;;3.90;99867.00;;;;10087426;29;20696;-80
2023/12/05 13:25:06;;;;;;;59.80;24.67;;;;;3.90;99875.00;;;;10073201;29;20849;-81
2023/12/05 13:30:07;;;;;;;66.17;25.97;;;;;4.00;99869.00;;;;10069562;29;20232;-78
2023/12/05 13:35:09;;;;;;;55.80;24.30;;;;;4.10;99875.00;;;;10071476;29;20232;-78
2023/12/05 13:40:10;;;;;;;59.87;26.43;;;;;4.10;99882.00;;;;10054786;29;20246;-81
2023/12/05 13:45:11;;;;;;;57.90;25.63;;;;;4.00;99889.00;;;;10083623;29;20252;-78
2023/12/05 13:50:12;;;;;;;65.57;26.83;;;;;4.00;99899.00;;;;10085409;29;20863;-79
2023/12/05 13:55:14;;;;;;;64.20;26.90;;;;;4.00;99903.00;;;;10087350;29;20990;-78
2023/12/05 14:00:15;;;;;;;58.50;26.23;;;;;4.00;99908.00;;;;10073607;29;20274;-79
2023/12/05 14:05:17;;;;;;;64.07;25.93;;;;;4.00;99918.00;;;;10088640;29;20223;-80
2023/12/05 14:10:19;;;;;;;56.57;25.20;;;;;3.90;99934.00;;;;10087180;29;20227;-78
2023/12/05 14:15:20;;;;;;;37.27;18.77;;;;;3.90;99940.00;;;;10100616;29;20250;-81
2023/12/05 14:20:25;;;;;;;43.83;22.43;;;;;3.90;99936.00;;;;10083234;29;20236;-78
2023/12/05 14:25:26;;;;;;;41.80;20.63;;;;;3.80;99944.00;;;;10065407;29;20233;-81
2023/12/05 14:30:28;;;;;;;39.47;19.73;;;;;3.80;99944.00;;;;10090831;29;20669;-79
2023/12/05 14:35:29;;;;;;;46.77;22.43;;;;;3.80;99969.00;;;;10068705;29;20235;-78
2023/12/05 14:40:30;;;;;;;39.27;19.90;;;;;3.80;99965.00;;;;10055721;29;20232;-79
2023/12/05 14:45:31;;;;;;;41.87;21.13;;;;;3.80;99963.00;;;;10059155;29;20243;-80
2023/12/05 14:50:32;;;;;;;47.70;24.27;;;;;3.80;99985.00;;;;10086720;29;20228;-79
2023/12/05 14:55:34;;;;;;;61.33;26.00;;;;;3.80;99989.00;;;;10074076;29;20219;-79
2023/12/05 15:00:35;;;;;;;54.77;23.27;;;;;3.80;99993.00;;;;10085461;29;20362;-77
2023/12/05 15:05:36;;;;;;;57.23;24.83;;;;;3.80;100005.00;;;;10090028;29;20215;-76
2023/12/05 15:10:38;;;;;;;68.83;26.23;;;;;3.80;100013.00;;;;10070358;29;20243;-78
2023/12/05 15:15:39;;;;;;;63.17;26.50;;;;;3.80;100018.00;;;;10068031;29;20255;-78
2023/12/05 15:20:40;;;;;;;64.57;25.87;;;;;3.80;100030.00;;;;10072284;29;20238;-78
2023/12/05 15:25:42;;;;;;;75.10;29.47;;;;;3.80;100027.00;;;;10081149;29;20275;-77
2023/12/05 15:30:43;;;;;;;70.43;27.57;;;;;3.80;100037.00;;;;10071870;29;20662;-77
2023/12/05 15:35:44;;;;;;;69.23;27.90;;;;;3.90;100044.00;;;;10053533;29;20231;-76
2023/12/05 15:40:45;;;;;;;72.93;29.10;;;;;3.80;100055.00;;;;10080995;29;20995;-77
2023/12/05 15:45:46;;;;;;;71.27;28.07;;;;;3.80;100066.00;;;;10090336;29;20243;-77
2023/12/05 15:50:48;;;;;;;66.93;27.73;;;;;3.80;100070.00;;;;10087792;29;20263;-76
2023/12/05 15:55:49;;;;;;;87.27;32.33;;;;;3.90;100077.00;;;;10080704;29;20680;-78
2023/12/05 16:00:50;;;;;;;73.73;31.10;;;;;3.90;100076.00;;;;10074899;29;20259;-76
2023/12/05 16:06:01;;;;;;;73.63;32.40;;;;;3.90;100085.00;;;;10071987;29;20223;-79
2023/12/05 16:11:04;;;;;;;78.63;32.53;;;;;3.90;100097.00;;;;10070912;29;20224;-80
2023/12/05 16:16:05;;;;;;;72.83;31.77;;;;;3.90;100098.00;;;;10069177;29;20255;-79
2023/12/05 16:21:07;;;;;;;76.47;33.70;;;;;4.00;100102.00;;;;10086554;29;20242;-83
2023/12/05 16:26:08;;;;;;;69.07;31.63;;;;;4.00;100102.00;;;;10068323;29;20243;-77
2023/12/05 16:31:09;;;;;;;66.37;29.87;;;;;4.00;100104.00;;;;10052488;29;20306;-81
2023/12/05 16:36:13;;;;;;;70.30;31.27;;;;;4.00;100111.00;;;;10072504;29;20275;-78
2023/12/05 16:41:14;;;;;;;72.23;31.73;;;;;4.00;100116.00;;;;10093255;29;20326;-80
2023/12/05 16:46:15;;;;;;;61.23;29.97;;;;;4.00;100121.00;;;;10074746;29;20230;-80
2023/12/05 16:51:16;;;;;;;66.37;31.40;;;;;4.00;100126.00;;;;10072615;29;20234;-84
2023/12/05 16:56:18;;;;;;;67.13;33.00;;;;;4.00;100130.00;;;;10058008;29;20234;-81
2023/12/05 17:01:19;;;;;;;73.23;32.97;;;;;4.00;100142.00;;;;10066535;29;20933;-81
2023/12/05 17:06:21;;;;;;;68.77;32.23;;;;;4.10;100139.00;;;;10073468;29;20223;-83
2023/12/05 17:11:22;;;;;;;70.80;31.93;;;;;4.10;100153.00;;;;10055839;29;20318;-81
2023/12/05 17:16:24;;;;;;;79.63;35.33;;;;;4.10;100159.00;;;;10054934;29;20716;-77
2023/12/05 17:21:25;;;;;;;63.50;29.30;;;;;4.10;100167.00;;;;10072687;29;20240;-78
2023/12/05 17:26:26;;;;;;;69.57;33.03;;;;;4.10;100175.00;;;;10106725;29;20235;-79
2023/12/05 17:31:27;;;;;;;58.57;26.30;;;;;4.10;100181.00;;;;10069645;29;20768;-78
2023/12/05 17:36:29;;;;;;;77.33;34.13;;;;;4.10;100186.00;;;;10072904;29;20235;-81
2023/12/05 17:41:30;;;;;;;82.77;35.03;;;;;4.10;100185.00;;;;10091029;29;20234;-84
2023/12/05 17:46:31;;;;;;;67.97;27.90;;;;;4.10;100194.00;;;;10068954;29;20322;-82
2023/12/05 17:51:32;;;;;;;77.53;34.20;;;;;4.10;100195.00;;;;10084010;29;20697;-85
2023/12/05 17:56:34;;;;;;;71.83;31.57;;;;;4.10;100206.00;;;;10075262;29;20282;-79
2023/12/05 18:01:35;;;;;;;74.43;33.13;;;;;4.10;100212.00;;;;10089832;29;20242;-81
2023/12/05 18:06:36;;;;;;;70.13;27.17;;;;;4.10;100220.00;;;;10073712;29;20231;-81
2023/12/05 18:11:38;;;;;;;78.27;34.33;;;;;4.10;100219.00;;;;10070426;29;20263;-81
2023/12/05 18:16:39;;;;;;;80.13;35.20;;;;;4.10;100226.00;;;;10072146;29;20674;-81
2023/12/05 18:21:40;;;;;;;82.83;36.73;;;;;4.20;100234.00;;;;10072988;29;20271;-79
2023/12/05 18:26:41;;;;;;;67.63;31.27;;;;;4.10;100240.00;;;;10067839;29;20231;-80
2023/12/05 18:31:42;;;;;;;65.40;30.73;;;;;4.10;100242.00;;;;10053916;29;20275;-80
2023/12/05 18:36:43;;;;;;;74.03;35.13;;;;;4.10;100251.00;;;;10071238;29;20223;-83
2023/12/05 18:41:45;;;;;;;76.60;35.97;;;;;4.10;100257.00;;;;10070569;29;20604;-81
2023/12/05 18:46:46;;;;;;;64.77;34.00;;;;;4.10;100255.00;;;;10062785;29;20227;-81
2023/12/05 18:51:47;;;;;;;64.10;30.50;;;;;4.10;100267.00;;;;10062986;29;20319;-82
2023/12/05 18:56:49;;;;;;;67.43;34.13;;;;;4.10;100271.00;;;;10091405;29;20231;-82
2023/12/05 19:01:50;;;;;;;65.30;32.77;;;;;4.10;100282.00;;;;10056805;29;20231;-80
2023/12/05 19:06:51;;;;;;;59.77;29.83;;;;;4.10;100297.00;;;;10068268;29;20223;-81
2023/12/05 19:11:53;;;;;;;60.73;31.57;;;;;4.10;100298.00;;;;10048343;29;20222;-82
2023/12/05 19:16:54;;;;;;;60.03;33.30;;;;;4.10;100296.00;;;;10079556;29;20291;-81
2023/12/05 19:21:55;;;;;;;49.30;27.40;;;;;4.00;100295.00;;;;10072041;29;20591;-84
2023/12/05 19:26:59;;;;;;;58.87;30.90;;;;;4.00;100300.00;;;;10081470;29;20334;-81
2023/12/05 19:32:01;;;;;;;48.37;25.97;;;;;4.00;100307.00;;;;10106036;29;20314;-82
2023/12/05 19:37:04;;;;;;;56.20;30.03;;;;;4.00;100307.00;;;;10053259;29;20250;-80
2023/12/05 19:42:05;;;;;;;57.03;32.50;;;;;4.00;100315.00;;;;10048605;29;21015;-80
2023/12/05 19:47:06;;;;;;;54.87;31.10;;;;;4.00;100315.00;;;;10057287;29;20224;-81
2023/12/05 19:52:08;;;;;;;51.67;26.63;;;;;4.00;100333.00;;;;10060343;29;20223;-80
2023/12/05 19:57:09;;;;;;;52.93;27.20;;;;;4.00;100334.00;;;;10061723;29;20972;-80
2023/12/05 20:02:12;;;;;;;49.57;26.60;;;;;4.00;100338.00;;;;10067992;29;20227;-81
2023/12/05 20:07:14;;;;;;;46.67;27.30;;;;;3.90;100346.00;;;;10075294;29;20309;-82
2023/12/05 20:12:15;;;;;;;48.83;27.40;;;;;3.90;100349.00;;;;10048905;29;20902;-80
2023/12/05 20:17:16;;;;;;;51.07;26.73;;;;;3.80;100354.00;;;;10065842;29;20231;-80
2023/12/05 20:22:19;;;;;;;45.47;27.63;;;;;3.80;100363.00;;;;10046919;29;20229;-82
2023/12/05 20:27:20;;;;;;;41.23;25.40;;;;;3.70;100364.00;;;;10047838;29;20239;-81
2023/12/05 20:32:22;;;;;;;40.40;24.40;;;;;3.70;100370.00;;;;10067329;29;20227;-81
2023/12/05 20:37:23;;;;;;;41.53;27.23;;;;;3.70;100380.00;;;;10063981;29;20319;-81
2023/12/05 20:42:24;;;;;;;34.73;23.03;;;;;3.60;100384.00;;;;10065083;29;20235;-81
2023/12/05 20:47:28;;;;;;;37.50;24.13;;;;;3.60;100381.00;;;;10052835;29;20231;-81
2023/12/05 20:52:31;;;;;;;37.53;24.97;;;;;3.60;100381.00;;;;10065838;29;20278;-81
2023/12/05 20:57:33;;;;;;;42.43;24.90;;;;;3.50;100405.00;;;;10068071;29;20223;-79
2023/12/05 21:02:34;;;;;;;40.47;24.90;;;;;3.50;100411.00;;;;10082563;29;20263;-80
2023/12/05 21:07:35;;;;;;;33.43;22.80;;;;;3.50;100413.00;;;;10051946;29;20232;-82
2023/12/05 21:12:37;;;;;;;40.17;26.43;;;;;3.50;100412.00;;;;10074612;29;20241;-81
2023/12/05 21:17:38;;;;;;;42.20;26.80;;;;;3.50;100426.00;;;;10108447;29;20290;-84
2023/12/05 21:22:39;;;;;;;40.33;24.13;;;;;3.50;100428.00;;;;10080277;29;20326;-80
2023/12/05 21:27:40;;;;;;;34.73;22.93;;;;;3.50;100437.00;;;;10062348;29;20756;-81
2023/12/05 21:32:42;;;;;;;38.33;24.87;;;;;3.50;100440.00;;;;10086037;29;20314;-81
2023/12/05 21:37:43;;;;;;;43.57;27.87;;;;;3.50;100446.00;;;;10087070;29;20308;-80
2023/12/05 21:42:44;;;;;;;41.63;25.43;;;;;3.60;100444.00;;;;10071079;29;20603;-80
2023/12/05 21:47:46;;;;;;;40.60;25.87;;;;;3.60;100454.00;;;;10087222;29;20227;-80
2023/12/05 21:52:47;;;;;;;41.07;26.63;;;;;3.60;100453.00;;;;10064339;29;20308;-80
2023/12/05 21:57:48;;;;;;;46.03;25.47;;;;;3.60;100459.00;;;;10064130;29;20228;-79
2023/12/05 22:02:50;;;;;;;47.20;27.83;;;;;3.60;100459.00;;;;10068484;29;20235;-79
2023/12/05 22:07:52;;;;;;;46.47;27.53;;;;;3.50;100475.00;;;;10052617;29;20246;-78
2023/12/05 22:12:53;;;;;;;47.83;28.23;;;;;3.50;100479.00;;;;10084885;29;20733;-79
2023/12/05 22:17:54;;;;;;;45.03;26.97;;;;;3.50;100475.00;;;;10091983;29;20227;-79
2023/12/05 22:22:55;;;;;;;45.87;27.73;;;;;3.50;100487.00;;;;10068143;29;20295;-79
2023/12/05 22:27:57;;;;;;;45.47;29.27;;;;;3.50;100497.00;;;;10057409;29;20316;-79
2023/12/05 22:32:58;;;;;;;54.53;32.00;;;;;3.50;100506.00;;;;10051460;29;20228;-79
2023/12/05 22:37:59;;;;;;;45.70;30.27;;;;;3.50;100530.00;;;;10067197;29;20349;-79
2023/12/05 22:43:01;;;;;;;48.47;30.93;;;;;3.50;100525.00;;;;10061420;29;20244;-79
2023/12/05 22:48:03;;;;;;;54.60;31.20;;;;;3.50;100526.00;;;;10085355;29;20383;-79
2023/12/05 22:53:04;;;;;;;48.03;31.27;;;;;3.50;100544.00;;;;10086234;29;20284;-79
2023/12/05 22:58:05;;;;;;;46.43;32.03;;;;;3.50;100545.00;;;;10084996;29;20231;-79
2023/12/05 23:03:06;;;;;;;52.57;32.23;;;;;3.60;100547.00;;;;10067435;29;20224;-79
2023/12/05 23:08:08;;;;;;;49.77;30.50;;;;;3.60;100548.00;;;;10092871;29;20243;-88
2023/12/05 23:13:09;;;;;;;48.67;31.03;;;;;3.60;100550.00;;;;10097963;29;20526;-88
2023/12/05 23:18:11;;;;;;;45.60;31.17;;;;;3.60;100551.00;;;;10070166;29;20267;-89
2023/12/05 23:23:13;;;;;;;48.63;31.70;;;;;3.60;100567.00;;;;10085052;29;20252;-88
2023/12/05 23:28:14;;;;;;;45.50;30.57;;;;;3.70;100571.00;;;;10111107;29;20323;-88
2023/12/05 23:33:23;;;;;;;54.17;31.13;;;;;3.70;100574.00;;;;10085494;29;20874;-88
2023/12/05 23:38:24;;;;;;;53.63;33.60;;;;;3.70;100576.00;;;;10098540;29;20255;-89
2023/12/05 23:43:25;;;;;;;49.67;32.23;;;;;3.80;100573.00;;;;10080150;29;20280;-87
2023/12/05 23:48:28;;;;;;;50.63;31.10;;;;;3.80;100588.00;;;;10070743;29;20592;-86
2023/12/05 23:53:29;;;;;;;42.27;27.90;;;;;3.80;100588.00;;;;10101594;29;20654;-86
2023/12/05 23:58:30;;;;;;;48.63;30.53;;;;;3.80;100575.00;;;;10097658;29;20240;-86
